Time;durP1;ratioP1;P1;durP2;ratioP2;P2;SDS_P1;SDS_P2;PMS_P1;PMS_P2;Temp;Humidity;BMP_temperature;BMP_pressure;BME280_temperature;BME280_humidity;BME280_pressure;Samples;Min_cycle;Max_cycle;Signal;HPM_P1;HPM_P2
2022/07/19 00:00:51;;;;;;;8.95;3.95;;;;;;;18.74;100.00;99395.84;4401382;32;20383;-74
2022/07/19 00:03:17;;;;;;;10.27;3.45;;;;;;;18.90;100.00;99454.56;4400424;32;20051;-72
2022/07/19 00:05:44;;;;;;;8.63;3.85;;;;;;;18.57;100.00;99407.25;4387115;32;20049;-72
2022/07/19 00:08:10;;;;;;;6.93;3.70;;;;;;;18.51;100.00;99403.81;4386860;32;20031;-73
2022/07/19 00:10:37;;;;;;;7.50;4.00;;;;;;;18.34;100.00;99404.28;4385389;32;20038;-72
2022/07/19 00:13:03;;;;;;;8.05;4.03;;;;;;;18.29;100.00;99407.06;4400477;32;20057;-72
2022/07/19 00:15:30;;;;;;;12.93;4.00;;;;;;;18.61;100.00;99450.00;4403634;32;20088;-72
2022/07/19 00:17:56;;;;;;;10.57;4.05;;;;;;;18.50;100.00;99427.50;4403563;32;20395;-72
2022/07/19 00:20:23;;;;;;;5.82;3.97;;;;;;;18.31;100.00;99396.69;4399191;32;20038;-73
2022/07/19 00:22:49;;;;;;;10.88;4.28;;;;;;;18.36;100.00;99402.06;4401166;32;20079;-72
2022/07/19 00:25:16;;;;;;;11.20;4.22;;;;;;;18.26;100.00;99403.00;4386574;32;20065;-72
2022/07/19 00:27:43;;;;;;;8.98;4.10;;;;;;;18.32;100.00;99396.41;4399762;32;20035;-72
2022/07/19 00:30:10;;;;;;;21.73;4.30;;;;;;;18.55;100.00;99442.19;4401510;32;20119;-72
2022/07/19 00:32:37;;;;;;;11.68;4.80;;;;;;;18.52;100.00;99438.97;4384151;32;20085;-73
2022/07/19 00:35:04;;;;;;;10.30;3.72;;;;;;;18.17;100.00;99360.34;4399924;32;20093;-73
2022/07/19 00:37:30;;;;;;;8.25;4.75;;;;;;;18.67;100.00;99445.31;4401185;32;20035;-72
2022/07/19 00:39:57;;;;;;;9.30;3.58;;;;;;;18.26;100.00;99396.75;4398773;32;20042;-73
2022/07/19 00:42:24;;;;;;;7.50;4.15;;;;;;;18.32;100.00;99395.59;4386409;32;20436;-72
2022/07/19 00:44:50;;;;;;;11.12;4.45;;;;;;;18.62;100.00;99442.63;4399374;32;20074;-73
2022/07/19 00:47:17;;;;;;;15.45;4.28;;;;;;;18.31;100.00;99399.41;4400013;32;20077;-73
2022/07/19 00:49:44;;;;;;;17.02;4.28;;;;;;;18.31;100.00;99394.75;4400037;32;20051;-73
2022/07/19 00:52:13;;;;;;;8.45;4.05;;;;;;;18.62;100.00;99453.53;4399752;32;20494;-72
2022/07/19 00:54:40;;;;;;;12.55;4.68;;;;;;;18.60;100.00;99450.28;4382100;32;20453;-74
2022/07/19 00:57:08;;;;;;;11.07;4.78;;;;;;;18.43;100.00;99407.19;4384296;32;20057;-72
2022/07/19 00:59:41;;;;;;;12.82;3.85;;;;;;;18.95;100.00;99431.84;4384995;32;20431;-72
2022/07/19 01:02:09;;;;;;;8.50;4.85;;;;;;;19.28;100.00;99434.63;4385546;32;20047;-72
2022/07/19 01:04:37;;;;;;;8.30;3.95;;;;;;;19.18;100.00;99384.56;4384716;32;20040;-72
2022/07/19 01:07:03;;;;;;;8.80;4.62;;;;;;;19.52;100.00;99443.50;4385910;32;20389;-72
2022/07/19 01:09:30;;;;;;;7.90;4.30;;;;;;;19.65;100.00;99441.12;4400979;32;20062;-72
2022/07/19 01:11:57;;;;;;;12.57;4.62;;;;;;;19.62;100.00;99425.31;4400372;32;20307;-72
2022/07/19 01:14:23;;;;;;;12.02;4.47;;;;;;;19.17;100.00;99372.00;4399739;32;20072;-72
2022/07/19 01:16:49;;;;;;;12.02;4.22;;;;;;;19.28;100.00;99390.97;4397869;32;20136;-73
2022/07/19 01:19:17;;;;;;;9.98;4.50;;;;;;;19.17;100.00;99391.09;4400267;32;20038;-72
2022/07/19 01:21:43;;;;;;;10.07;3.50;;;;;;;19.47;100.00;99429.94;4401533;32;20027;-73
2022/07/19 01:24:09;;;;;;;14.55;5.65;;;;;;;19.48;100.00;99426.09;4403053;32;20082;-72
2022/07/19 01:26:36;;;;;;;8.30;4.15;;;;;;;19.23;100.00;99373.53;4403932;32;20030;-72
2022/07/19 01:29:03;;;;;;;12.32;4.65;;;;;;;19.26;100.00;99384.97;4401174;32;20035;-73
2022/07/19 01:31:29;;;;;;;13.62;3.75;;;;;;;19.46;100.00;99433.75;4389657;32;20128;-73
2022/07/19 01:33:56;;;;;;;11.30;3.78;;;;;;;19.43;100.00;99423.44;4401808;32;20035;-72
2022/07/19 01:36:22;;;;;;;14.95;3.95;;;;;;;19.42;100.00;99416.38;4403145;32;20039;-72
2022/07/19 01:38:49;;;;;;;5.40;3.53;;;;;;;19.36;100.00;99396.53;4403682;32;20454;-73
2022/07/19 01:41:15;;;;;;;10.07;4.00;;;;;;;19.44;100.00;99425.06;4401206;32;20055;-73
2022/07/19 01:43:44;;;;;;;11.50;4.50;;;;;;;19.56;100.00;99425.41;4389015;32;20962;-72
2022/07/19 01:46:10;;;;;;;9.02;4.37;;;;;;;19.26;100.00;99374.03;4403650;32;20051;-72
2022/07/19 01:48:37;;;;;;;6.10;4.18;;;;;;;19.35;100.00;99383.19;4401916;32;20367;-72
2022/07/19 01:51:03;;;;;;;6.12;3.87;;;;;;;19.35;100.00;99375.81;4400902;32;20053;-73
2022/07/19 01:53:30;;;;;;;10.07;4.00;;;;;;;19.66;100.00;99420.88;4402457;32;20127;-73
2022/07/19 01:55:57;;;;;;;8.00;3.58;;;;;;;19.77;100.00;99422.34;4403316;32;20031;-73
2022/07/19 01:58:23;;;;;;;10.00;3.78;;;;;;;19.79;100.00;99422.84;4401467;32;20449;-73
2022/07/19 02:00:50;;;;;;;12.88;3.50;;;;;;;19.40;100.00;99366.69;4401331;32;20098;-73
2022/07/19 02:03:18;;;;;;;7.62;3.70;;;;;;;19.62;100.00;99392.53;4401884;32;20056;-73
2022/07/19 02:05:44;;;;;;;6.75;3.97;;;;;;;19.63;100.00;99394.19;4401790;32;20034;-72
2022/07/19 02:08:10;;;;;;;10.18;4.10;;;;;;;19.87;100.00;99422.16;4389314;32;20030;-73
2022/07/19 02:10:37;;;;;;;8.75;3.75;;;;;;;19.68;100.00;99411.25;4402256;32;20043;-73
2022/07/19 02:13:03;;;;;;;8.98;4.10;;;;;;;19.75;100.00;99430.00;4400142;32;20073;-73
2022/07/19 02:15:30;;;;;;;15.50;4.85;;;;;;;19.49;100.00;99400.41;4402380;32;20069;-73
2022/07/19 02:17:56;;;;;;;11.00;3.33;;;;;;;19.29;100.00;99385.19;4402698;32;20035;-72
2022/07/19 02:20:23;;;;;;;6.62;3.95;;;;;;;19.14;100.00;99378.06;4403487;32;20069;-73
2022/07/19 02:22:50;;;;;;;14.35;4.07;;;;;;;19.39;100.00;99412.31;4400523;32;20096;-73
2022/07/19 02:25:17;;;;;;;9.13;4.15;;;;;;;19.51;100.00;99419.22;4400209;32;20051;-72
2022/07/19 02:27:43;;;;;;;7.47;4.68;;;;;;;19.56;100.00;99416.38;4402288;32;20047;-73
2022/07/19 02:30:11;;;;;;;13.88;3.78;;;;;;;19.70;100.00;99417.22;4403131;32;20078;-73
2022/07/19 02:32:38;;;;;;;8.65;3.65;;;;;;;19.63;100.00;99413.28;4402541;32;20057;-73
2022/07/19 02:35:07;;;;;;;3.85;3.10;;;;;;;19.32;100.00;99375.56;4399693;32;20180;-73
2022/07/19 02:37:33;;;;;;;7.75;3.22;;;;;;;19.36;100.00;99379.34;4401588;32;20060;-73
2022/07/19 02:40:00;;;;;;;4.53;3.12;;;;;;;19.28;100.00;99374.56;4401758;32;20078;-73
2022/07/19 02:42:26;;;;;;;4.03;2.92;;;;;;;19.58;100.00;99417.72;4401204;32;20429;-73
2022/07/19 02:44:52;;;;;;;5.50;3.60;;;;;;;19.49;100.00;99405.87;4400113;32;20077;-73
2022/07/19 02:47:19;;;;;;;8.90;3.75;;;;;;;19.50;100.00;99412.97;4400532;32;20914;-73
2022/07/19 02:49:45;;;;;;;2.92;2.50;;;;;;;19.33;100.00;99379.94;4401145;32;20445;-72
2022/07/19 02:52:11;;;;;;;6.80;2.60;;;;;;;19.23;100.00;99370.00;4402778;32;20027;-73
2022/07/19 02:54:39;;;;;;;7.20;4.20;;;;;;;19.36;100.00;99391.06;4389089;32;20449;-72
2022/07/19 02:57:05;;;;;;;6.82;3.30;;;;;;;19.38;100.00;99382.56;4399305;32;20064;-72
2022/07/19 02:59:38;;;;;;;12.43;4.07;;;;;;;19.24;100.00;99369.72;4387885;32;20030;-72
2022/07/19 03:02:05;;;;;;;9.40;3.03;;;;;;;19.22;100.00;99377.38;4401939;32;20043;-72
2022/07/19 03:04:31;;;;;;;12.45;3.03;;;;;;;19.48;100.00;99408.88;4401949;32;20035;-72
2022/07/19 03:06:58;;;;;;;3.85;2.62;;;;;;;19.48;100.00;99423.38;4399092;32;20052;-73
2022/07/19 03:09:24;;;;;;;10.13;3.67;;;;;;;19.49;100.00;99422.25;4400055;32;20058;-72
2022/07/19 03:11:51;;;;;;;9.18;3.00;;;;;;;19.41;100.00;99404.63;4401279;32;20039;-72
2022/07/19 03:14:17;;;;;;;9.07;2.95;;;;;;;19.26;100.00;99374.03;4383663;32;20072;-72
2022/07/19 03:16:44;;;;;;;9.65;4.55;;;;;;;19.31;100.00;99382.16;4394770;32;20375;-73
2022/07/19 03:19:10;;;;;;;7.25;3.20;;;;;;;19.56;100.00;99414.50;4400209;32;20086;-72
2022/07/19 03:21:36;;;;;;;6.07;3.10;;;;;;;19.51;100.00;99398.16;4401919;32;20043;-72
2022/07/19 03:24:03;;;;;;;3.47;2.75;;;;;;;19.66;100.00;99420.88;4400545;32;20409;-72
2022/07/19 03:26:29;;;;;;;8.00;2.80;;;;;;;19.65;100.00;99419.25;4402022;32;20082;-73
2022/07/19 03:28:56;;;;;;;4.57;2.65;;;;;;;19.37;100.00;99372.75;4400308;32;20057;-73
2022/07/19 03:31:23;;;;;;;4.90;2.80;;;;;;;19.54;100.00;99413.97;4400748;32;20052;-73
2022/07/19 03:33:49;;;;;;;6.05;2.75;;;;;;;19.31;100.00;99371.25;4401014;32;20080;-73
2022/07/19 03:36:15;;;;;;;11.25;3.22;;;;;;;19.66;100.00;99420.88;4401024;32;20482;-73
2022/07/19 03:38:42;;;;;;;8.20;3.17;;;;;;;19.50;100.00;99384.84;4401506;32;20051;-73
2022/07/19 03:41:08;;;;;;;10.75;3.60;;;;;;;19.76;100.00;99420.72;4398618;32;20076;-73
2022/07/19 03:43:37;;;;;;;13.05;4.75;;;;;;;19.95;100.00;99418.72;4400844;32;20051;-73
2022/07/19 03:46:04;;;;;;;9.05;4.62;;;;;;;19.67;100.00;99382.31;4401600;32;20047;-73
2022/07/19 03:48:30;;;;;;;8.20;4.22;;;;;;;19.90;100.00;99404.34;4401107;32;20068;-73
2022/07/19 03:50:57;;;;;;;8.23;4.00;;;;;;;19.59;100.00;99372.94;4401389;32;20298;-74
2022/07/19 03:53:23;;;;;;;7.43;3.90;;;;;;;19.82;100.00;99419.53;4398998;32;20051;-74
2022/07/19 03:55:50;;;;;;;13.77;3.12;;;;;;;19.73;100.00;99415.84;4401556;32;20137;-73
2022/07/19 03:58:16;;;;;;;7.22;3.80;;;;;;;19.60;100.00;99385.44;4400338;32;20047;-73
2022/07/19 04:00:45;;;;;;;19.80;3.83;;;;;;;19.30;100.00;99353.25;4401602;32;20053;-73
2022/07/19 04:03:12;;;;;;;9.82;3.60;;;;;;;19.29;100.00;99378.91;4391527;32;20031;-73
2022/07/19 04:05:38;;;;;;;7.82;3.40;;;;;;;19.33;100.00;99401.78;4399130;32;20038;-72
2022/07/19 04:08:05;;;;;;;7.75;4.30;;;;;;;19.17;100.00;99366.53;4401220;32;20058;-73
2022/07/19 04:10:32;;;;;;;7.30;3.55;;;;;;;19.67;100.00;99417.03;4400396;32;20072;-73
2022/07/19 04:12:58;;;;;;;9.18;3.92;;;;;;;19.41;100.00;99376.53;4399953;32;20046;-75
2022/07/19 04:15:25;;;;;;;7.05;3.53;;;;;;;19.56;100.00;99378.16;4386274;32;20038;-74
2022/07/19 04:17:52;;;;;;;11.02;4.47;;;;;;;19.71;100.00;99429.00;4385420;32;20039;-74
2022/07/19 04:20:18;;;;;;;11.50;4.28;;;;;;;19.60;100.00;99403.78;4400177;32;20055;-74
2022/07/19 04:22:45;;;;;;;9.80;3.95;;;;;;;19.89;100.00;99433.59;4400539;32;20432;-74
2022/07/19 04:25:11;;;;;;;14.73;3.25;;;;;;;19.99;100.00;99423.56;4401812;32;20219;-76
2022/07/19 04:27:37;;;;;;;4.43;2.97;;;;;;;20.07;100.00;99428.34;4398880;32;20437;-73
2022/07/19 04:30:05;;;;;;;8.00;3.03;;;;;;;19.82;100.00;99394.13;4401431;32;20058;-72
2022/07/19 04:32:33;;;;;;;4.87;3.08;;;;;;;20.24;100.00;99425.81;4401809;32;20042;-70
2022/07/19 04:35:00;;;;;;;6.37;3.22;;;;;;;20.23;99.57;99429.69;4401556;32;20043;-71
2022/07/19 04:37:27;;;;;;;7.60;3.47;;;;;;;20.33;99.17;99406.78;4397280;32;20372;-71
2022/07/19 04:39:53;;;;;;;5.90;3.65;;;;;;;20.54;95.45;99437.22;4386560;32;20082;-71
2022/07/19 04:42:19;;;;;;;6.40;3.22;;;;;;;20.33;96.74;99379.44;4384921;32;20039;-72
2022/07/19 04:44:46;;;;;;;12.13;3.20;;;;;;;20.59;95.92;99436.31;4386429;32;20043;-71
2022/07/19 04:47:12;;;;;;;8.30;4.10;;;;;;;20.68;95.35;99429.84;4386517;32;20043;-71
2022/07/19 04:49:38;;;;;;;8.80;3.05;;;;;;;20.49;92.70;99404.53;4388140;32;20403;-71
2022/07/19 04:52:05;;;;;;;8.18;3.17;;;;;;;20.79;94.63;99440.56;4399363;32;20051;-72
2022/07/19 04:54:32;;;;;;;6.45;3.28;;;;;;;20.78;92.54;99434.28;4401383;32;20046;-72
2022/07/19 04:56:58;;;;;;;10.10;2.53;;;;;;;20.92;91.39;99445.19;4402738;32;20166;-72
2022/07/19 04:59:24;;;;;;;11.10;2.67;;;;;;;20.67;92.73;99411.78;4402710;32;20039;-73
2022/07/19 05:01:51;;;;;;;11.25;3.12;;;;;;;20.87;92.23;99426.16;4390607;32;20086;-73
2022/07/19 05:04:17;;;;;;;5.87;3.17;;;;;;;20.86;93.61;99438.22;4404302;32;20401;-72
2022/07/19 05:06:44;;;;;;;14.95;2.97;;;;;;;20.69;92.11;99433.38;4401253;32;20068;-72
2022/07/19 05:09:11;;;;;;;11.25;3.65;;;;;;;20.88;91.57;99441.44;4388666;32;20105;-72
2022/07/19 05:11:37;;;;;;;7.37;2.60;;;;;;;20.97;90.64;99441.53;4388015;32;20065;-72
2022/07/19 05:14:03;;;;;;;16.37;3.17;;;;;;;21.04;91.32;99434.53;4386454;32;20057;-72
2022/07/19 05:16:30;;;;;;;4.22;2.70;;;;;;;20.63;94.69;99380.69;4388051;32;20132;-71
2022/07/19 05:18:56;;;;;;;8.60;3.08;;;;;;;20.90;90.41;99417.34;4389923;32;20057;-71
2022/07/19 05:21:22;;;;;;;6.85;2.58;;;;;;;20.96;94.81;99418.00;4387891;32;20474;-72
2022/07/19 05:23:49;;;;;;;4.28;2.90;;;;;;;20.59;93.31;99366.00;4387430;32;20034;-73
2022/07/19 05:26:15;;;;;;;4.20;2.50;;;;;;;20.54;89.63;99379.78;4402005;32;20043;-72
2022/07/19 05:28:41;;;;;;;6.55;3.10;;;;;;;20.97;93.13;99420.44;4402456;32;20047;-72
2022/07/19 05:31:08;;;;;;;6.53;3.03;;;;;;;20.93;94.40;99419.44;4403881;32;20072;-72
2022/07/19 05:33:34;;;;;;;12.73;3.95;;;;;;;20.76;91.84;99408.31;4402813;32;20042;-72
2022/07/19 05:36:00;;;;;;;9.38;4.07;;;;;;;20.86;92.75;99419.06;4393478;32;20083;-72
2022/07/19 05:38:29;;;;;;;6.15;3.10;;;;;;;20.78;93.49;99417.06;4386652;32;20043;-72
2022/07/19 05:40:55;;;;;;;12.50;3.05;;;;;;;20.86;92.91;99419.06;4388435;32;20515;-72
2022/07/19 05:43:21;;;;;;;7.55;2.75;;;;;;;20.91;92.29;99427.16;4399175;32;20046;-74
2022/07/19 05:45:55;;;;;;;7.93;2.95;;;;;;;20.96;93.08;99424.28;4402805;32;20051;-75
2022/07/19 05:48:28;;;;;;;7.80;2.85;;;;;;;20.68;94.26;99385.28;4382728;32;20050;-73
2022/07/19 05:50:55;;;;;;;6.72;2.92;;;;;;;20.57;93.13;99372.91;4387649;32;20059;-74
2022/07/19 05:53:21;;;;;;;8.05;3.37;;;;;;;20.76;93.25;99413.81;4392874;32;20428;-74
2022/07/19 05:55:48;;;;;;;8.15;3.30;;;;;;;20.84;94.23;99421.31;4393554;32;20064;-74
2022/07/19 05:58:17;;;;;;;23.27;5.45;;;;;;;20.93;93.07;99424.91;4389557;32;20068;-75
2022/07/19 06:01:17;;;;;;;17.42;3.55;;;;;;;20.73;87.67;99387.09;4396504;32;20440;-75
2022/07/19 06:03:32;;;;;;;14.85;2.97;;;;;;;20.99;92.75;99426.41;4390398;32;20364;-75
2022/07/19 06:05:58;;;;;;;17.85;3.30;;;;;;;20.86;85.63;99391.69;4385494;32;20364;-74
2022/07/19 06:08:25;;;;;;;9.02;2.75;;;;;;;20.67;87.04;99357.09;4398537;32;20104;-75
2022/07/19 06:10:51;;;;;;;13.95;2.97;;;;;;;21.23;90.85;99422.56;4398914;32;20758;-75
2022/07/19 06:13:18;;;;;;;19.52;3.53;;;;;;;21.34;87.02;99412.97;4394746;32;20034;-74
2022/07/19 06:15:44;;;;;;;4.45;2.75;;;;;;;21.19;87.71;99416.91;4391711;32;20350;-75
2022/07/19 06:18:11;;;;;;;9.55;3.53;;;;;;;21.17;86.33;99352.63;4393043;32;20047;-75
2022/07/19 06:20:37;;;;;;;11.18;3.20;;;;;;;21.57;85.63;99426.69;4397558;32;20049;-74
2022/07/19 06:23:03;;;;;;;12.70;3.12;;;;;;;21.48;81.95;99425.81;4393341;32;20051;-74
2022/07/19 06:25:30;;;;;;;4.95;2.80;;;;;;;21.70;85.57;99434.03;4391202;32;20082;-75
2022/07/19 06:27:56;;;;;;;12.82;3.08;;;;;;;21.49;81.32;99394.56;4389248;32;20074;-74
2022/07/19 06:30:23;;;;;;;11.12;3.20;;;;;;;21.74;81.38;99431.47;4395062;32;20047;-73
2022/07/19 06:32:49;;;;;;;6.72;3.67;;;;;;;21.87;83.44;99427.00;4380099;32;20665;-74
2022/07/19 06:35:16;;;;;;;8.50;2.95;;;;;;;21.99;82.94;99432.72;4389979;32;20101;-74
2022/07/19 06:37:42;;;;;;;4.97;2.78;;;;;;;22.14;81.59;99443.25;4387892;32;20166;-74
2022/07/19 06:40:09;;;;;;;13.68;3.53;;;;;;;22.12;82.73;99426.31;4385647;32;20069;-73
2022/07/19 06:42:36;;;;;;;13.23;2.80;;;;;;;22.16;80.76;99398.25;4386702;32;20395;-74
2022/07/19 06:45:03;;;;;;;17.12;3.80;;;;;;;22.21;81.18;99428.25;4386748;32;20082;-74
2022/07/19 06:47:32;;;;;;;12.45;3.15;;;;;;;21.75;84.50;99373.59;4388347;32;20094;-74
2022/07/19 06:49:58;;;;;;;24.65;4.80;;;;;;;22.30;79.60;99423.66;4386790;32;20054;-74
2022/07/19 06:52:25;;;;;;;18.20;4.53;;;;;;;22.24;82.53;99400.19;4386702;32;20060;-75
2022/07/19 06:54:52;;;;;;;12.57;3.45;;;;;;;22.59;80.35;99427.75;4384138;32;20069;-75
2022/07/19 06:57:18;;;;;;;7.57;2.67;;;;;;;22.58;79.04;99426.94;4391019;32;20117;-74
2022/07/19 06:59:44;;;;;;;10.10;3.95;;;;;;;22.82;79.28;99436.66;4397408;32;20077;-74
2022/07/19 07:02:11;;;;;;;9.35;2.60;;;;;;;22.51;77.80;99401.09;4388774;32;20077;-72
2022/07/19 07:04:37;;;;;;;5.37;3.08;;;;;;;22.71;79.88;99436.16;4393968;32;20061;-74
2022/07/19 07:07:03;;;;;;;14.23;2.92;;;;;;;22.67;77.00;99396.75;4386968;32;20129;-74
2022/07/19 07:09:30;;;;;;;12.63;2.87;;;;;;;23.14;76.28;99438.16;4387598;32;20113;-74
2022/07/19 07:11:56;;;;;;;8.82;2.90;;;;;;;23.24;73.98;99447.22;4385605;32;20088;-74
2022/07/19 07:14:23;;;;;;;4.95;2.83;;;;;;;23.19;73.37;99440.72;4383001;32;20060;-74
2022/07/19 07:16:49;;;;;;;9.85;3.22;;;;;;;23.17;73.67;99431.22;4387341;32;20054;-76
2022/07/19 07:19:16;;;;;;;6.75;2.75;;;;;;;23.25;75.04;99396.63;4387865;32;20100;-74
2022/07/19 07:21:42;;;;;;;10.82;3.80;;;;;;;23.32;73.36;99405.19;4395948;32;20109;-72
2022/07/19 07:24:08;;;;;;;5.18;3.28;;;;;;;23.57;71.82;99448.28;4390052;32;20065;-74
2022/07/19 07:26:35;;;;;;;12.82;3.08;;;;;;;23.67;69.90;99444.37;4393247;32;20360;-74
2022/07/19 07:29:01;;;;;;;11.98;2.83;;;;;;;23.44;69.56;99397.09;4388066;32;20035;-74
2022/07/19 07:31:28;;;;;;;13.27;2.80;;;;;;;23.61;71.74;99431.16;4396823;32;20158;-73
2022/07/19 07:33:54;;;;;;;7.60;3.10;;;;;;;23.53;75.21;99444.59;4393432;32;20056;-73
2022/07/19 07:36:20;;;;;;;19.45;2.42;;;;;;;23.46;70.67;99400.31;4397058;32;20482;-74
2022/07/19 07:38:47;;;;;;;7.00;2.95;;;;;;;23.97;70.14;99443.69;4389322;32;20044;-73
2022/07/19 07:41:13;;;;;;;14.70;3.20;;;;;;;24.14;70.56;99445.56;4380903;32;20062;-73
2022/07/19 07:43:39;;;;;;;3.70;2.35;;;;;;;24.11;64.11;99436.03;4375674;32;21044;-73
2022/07/19 07:46:06;;;;;;;12.98;8.40;;;;;;;24.06;66.75;99428.75;4384228;32;20077;-74
2022/07/19 07:48:32;;;;;;;7.25;3.15;;;;;;;23.90;67.71;99398.25;4391111;32;20043;-74
2022/07/19 07:50:58;;;;;;;10.27;2.97;;;;;;;24.16;69.97;99437.78;4377044;32;20035;-73
2022/07/19 07:53:25;;;;;;;14.45;3.08;;;;;;;23.66;71.45;99419.97;4382070;32;20471;-73
2022/07/19 07:55:58;;;;;;;18.80;2.97;;;;;;;23.52;76.13;99412.75;4488160;27;20061;-73
2022/07/19 07:58:25;;;;;;;3.03;2.72;;;;;;;23.92;72.71;99442.72;4380033;32;20128;-72
2022/07/19 08:00:51;;;;;;;11.43;3.47;;;;;;;23.95;70.94;99405.53;4385165;32;20051;-72
2022/07/19 08:03:17;;;;;;;9.90;3.30;;;;;;;24.35;70.50;99438.19;4385076;32;20047;-73
2022/07/19 08:05:47;;;;;;;9.95;2.55;;;;;;;24.19;73.77;99410.41;4370689;32;20055;-74
2022/07/19 08:08:17;;;;;;;3.85;2.08;;;;;;;24.41;69.00;99430.53;4385111;32;20433;-72
2022/07/19 08:10:50;;;;;;;4.47;2.47;;;;;;;24.36;67.11;99447.22;4385571;32;20367;-72
2022/07/19 08:13:17;;;;;;;8.00;3.00;;;;;;;24.15;71.37;99453.47;4384085;32;20403;-76
2022/07/19 08:15:43;;;;;;;7.03;2.87;;;;;;;24.12;70.76;99437.63;4383557;32;20042;-73
2022/07/19 08:18:10;;;;;;;10.38;3.00;;;;;;;24.31;71.50;99450.97;4385541;32;20059;-74
2022/07/19 08:20:37;;;;;;;10.98;2.97;;;;;;;24.02;69.22;99383.81;4385738;32;20039;-74
2022/07/19 08:23:03;;;;;;;16.90;3.20;;;;;;;24.35;74.99;99451.94;4371588;32;20064;-74
2022/07/19 08:25:30;;;;;;;15.40;3.12;;;;;;;24.39;74.85;99441.06;4384531;32;20070;-76
2022/07/19 08:27:56;;;;;;;6.47;3.00;;;;;;;24.02;76.66;99435.25;4384604;32;20032;-75
2022/07/19 08:30:23;;;;;;;7.45;2.45;;;;;;;24.09;75.24;99399.78;4370902;32;21289;-74
2022/07/19 08:32:49;;;;;;;6.93;2.80;;;;;;;24.24;69.59;99409.44;4385048;32;20095;-75
2022/07/19 08:35:16;;;;;;;8.85;3.72;;;;;;;24.48;72.96;99439.88;4385279;32;20031;-75
2022/07/19 08:37:42;;;;;;;9.75;2.65;;;;;;;24.22;72.72;99426.28;4370249;32;20043;-73
2022/07/19 08:40:09;;;;;;;13.70;3.10;;;;;;;24.49;73.00;99432.41;4372212;32;20059;-73
2022/07/19 08:42:36;;;;;;;10.70;3.05;;;;;;;24.40;74.06;99398.66;4383833;32;20429;-73
2022/07/19 08:45:06;;;;;;;3.05;2.42;;;;;;;24.34;67.40;99391.72;4384485;32;20042;-73
2022/07/19 08:47:34;;;;;;;8.40;2.53;;;;;;;24.59;65.99;99417.50;4383525;32;20043;-74
2022/07/19 08:50:03;;;;;;;19.10;2.53;;;;;;;24.62;66.13;99395.62;4385494;32;20081;-73
2022/07/19 08:52:32;;;;;;;10.13;2.87;;;;;;;24.73;58.63;99440.09;4385638;32;20047;-76
2022/07/19 08:54:59;;;;;;;3.35;2.80;;;;;;;25.01;58.66;99432.06;4370899;32;20097;-76
2022/07/19 09:00:13;;;;;;;17.45;3.25;;;;;;;25.17;54.22;99423.19;4385451;32;20068;-72
2022/07/19 09:02:39;;;;;;;10.10;3.05;;;;;;;25.08;57.13;99422.47;4385658;32;20120;-73
2022/07/19 09:05:09;;;;;;;4.85;2.65;;;;;;;24.91;58.13;99374.66;4384209;32;20035;-77
2022/07/19 09:07:39;;;;;;;5.12;2.90;;;;;;;25.45;55.80;99419.88;4384935;32;20048;-72
2022/07/19 09:10:21;;;;;;;11.40;3.28;;;;;;;25.52;54.72;99423.69;4371277;32;20120;-73
2022/07/19 09:13:15;;;;;;;4.25;2.70;;;;;;;25.62;54.75;99403.16;4371328;32;20117;-76
2022/07/19 09:15:53;;;;;;;10.27;2.90;;;;;;;25.84;50.78;99406.66;4386322;32;20039;-72
2022/07/19 09:18:27;;;;;;;8.75;3.55;;;;;;;25.62;46.73;99378.34;4378799;32;20103;-75
2022/07/19 09:20:56;;;;;;;8.10;2.53;;;;;;;25.60;47.28;99375.13;4385485;32;20455;-72
2022/07/19 09:23:23;;;;;;;14.65;3.20;;;;;;;25.67;47.02;99374.56;4370592;32;20047;-72
2022/07/19 09:25:57;;;;;;;3.42;2.53;;;;;;;25.78;47.18;99366.66;4375033;32;20087;-73
2022/07/19 09:28:26;;;;;;;4.35;3.00;;;;;;;25.98;43.81;99404.38;4383127;32;20159;-73
2022/07/19 09:30:55;;;;;;;7.93;3.15;;;;;;;25.73;44.55;99348.38;4385487;32;20035;-73
2022/07/19 09:33:27;;;;;;;12.05;3.05;;;;;;;26.02;44.52;99404.50;4384431;32;20044;-73
2022/07/19 09:36:12;;;;;;;4.80;2.78;;;;;;;25.94;44.30;99342.75;4383464;32;20058;-73
2022/07/19 09:38:42;;;;;;;6.65;2.72;;;;;;;26.39;44.85;99413.59;4384304;32;20047;-73
2022/07/19 09:41:13;;;;;;;5.27;2.87;;;;;;;26.05;44.92;99349.44;4385241;32;20035;-73
2022/07/19 09:43:58;;;;;;;6.20;2.73;;;;;;;26.18;44.53;99379.78;4386151;32;20087;-78
2022/07/19 09:46:45;;;;;;;6.15;2.70;;;;;;;26.52;43.69;99408.03;4385766;32;20034;-72
2022/07/19 09:49:14;;;;;;;11.95;2.58;;;;;;;26.45;42.74;99412.22;4382029;32;20065;-74
2022/07/19 09:51:46;;;;;;;13.23;2.97;;;;;;;26.46;43.53;99380.66;4385948;32;20080;-72
2022/07/19 09:54:13;;;;;;;;;;;;;;;26.91;43.39;99400.94;4374210;32;20057;-73
2022/07/19 09:56:41;;;;;;;5.28;2.28;;;;;;;26.92;42.61;99412.81;4372415;32;19944;-71
2022/07/19 09:59:08;;;;;;;7.75;3.12;;;;;;;26.78;42.72;99374.53;4384797;32;20047;-75
2022/07/19 10:01:36;;;;;;;9.30;2.85;;;;;;;26.99;41.75;99407.50;4387469;32;20348;-72
2022/07/19 10:04:12;;;;;;;11.68;3.47;;;;;;;26.66;41.97;99367.06;4374161;32;20057;-73
2022/07/19 10:06:40;;;;;;;5.65;3.15;;;;;;;27.02;41.17;99406.00;4384426;32;20050;-73
2022/07/19 10:09:09;;;;;;;9.10;2.97;;;;;;;27.01;41.56;99410.69;4384429;32;20488;-76
2022/07/19 10:11:36;;;;;;;5.28;3.20;;;;;;;27.15;40.53;99402.81;4381732;32;20974;-71
2022/07/19 10:14:04;;;;;;;8.52;3.08;;;;;;;27.34;40.05;99406.91;4383163;32;20065;-72
2022/07/19 10:16:56;;;;;;;3.50;2.35;;;;;;;26.60;40.20;99258.81;4373129;32;20446;-72
2022/07/19 10:19:27;;;;;;;7.85;2.80;;;;;;;27.34;39.39;99390.31;4374778;32;20332;-73
2022/07/19 10:21:54;;;;;;;7.05;2.97;;;;;;;27.38;39.52;99382.94;4373783;32;20047;-72
2022/07/19 10:24:43;;;;;;;3.47;2.70;;;;;;;27.53;39.88;99386.88;4381756;32;20056;-72
2022/07/19 10:27:10;;;;;;;6.47;2.67;;;;;;;27.90;39.44;99398.47;4386483;32;20039;-72
2022/07/19 10:29:36;;;;;;;7.40;2.92;;;;;;;28.02;38.54;99369.16;4387793;32;20372;-73
2022/07/19 10:32:05;;;;;;;5.28;2.40;;;;;;;28.16;38.72;99383.34;4386228;32;20053;-73
2022/07/19 10:34:32;;;;;;;3.03;2.72;;;;;;;27.99;37.74;99386.47;4385408;32;20055;-76
2022/07/19 10:36:59;;;;;;;2.75;2.55;;;;;;;27.92;38.33;99381.53;4387770;32;20077;-73
2022/07/19 10:39:35;;;;;;;10.48;3.08;;;;;;;28.03;38.95;99392.88;4387809;32;20089;-73
2022/07/19 10:42:22;;;;;;;12.68;3.83;;;;;;;27.99;38.48;99389.25;4372452;32;20040;-72
2022/07/19 10:44:54;;;;;;;11.30;2.78;;;;;;;27.82;38.66;99360.75;4386496;32;20046;-73
2022/07/19 10:47:42;;;;;;;4.12;2.83;;;;;;;28.29;38.36;99388.75;4388214;32;20047;-72
2022/07/19 10:50:21;;;;;;;3.10;2.80;;;;;;;28.02;38.38;99360.87;4371082;32;20463;-73
2022/07/19 10:52:48;;;;;;;4.85;2.40;;;;;;;28.13;38.26;99342.53;4371005;32;20346;-72
2022/07/19 10:58:07;;;;;;;3.37;2.83;;;;;;;28.16;37.42;99336.28;4385982;32;20036;-79
2022/07/19 11:00:46;;;;;;;4.12;2.80;;;;;;;28.50;37.16;99378.16;4372661;32;20051;-73
2022/07/19 11:03:31;;;;;;;2.42;2.33;;;;;;;28.73;37.04;99374.72;4371697;32;20425;-77
2022/07/19 11:06:01;;;;;;;10.93;3.00;;;;;;;28.89;36.51;99378.22;4374813;32;20043;-73
2022/07/19 11:08:36;;;;;;;2.50;2.30;;;;;;;29.06;36.74;99385.28;4373071;32;20023;-72
2022/07/19 11:11:14;;;;;;;2.33;2.22;;;;;;;29.34;35.53;99349.03;4383667;32;20470;-78
2022/07/19 11:13:45;;;;;;;4.47;2.47;;;;;;;29.86;35.78;99384.81;4370956;32;20080;-72
2022/07/19 11:16:11;;;;;;;;;;;;;;;29.75;34.65;99333.84;4385421;32;20053;-73
2022/07/19 11:18:38;;;;;;;9.60;3.17;;;;;;;30.07;34.75;99385.13;4367965;32;19950;-77
2022/07/19 11:21:05;;;;;;;4.87;2.53;;;;;;;30.32;34.21;99354.19;4385700;32;20413;-72
2022/07/19 11:23:34;;;;;;;4.03;2.78;;;;;;;30.85;33.78;99366.41;4386777;32;20044;-73
2022/07/19 11:26:12;;;;;;;4.68;3.55;;;;;;;31.07;34.09;99340.47;4386780;32;20415;-73
2022/07/19 11:28:42;;;;;;;9.65;3.25;;;;;;;31.24;33.22;99389.13;4385026;32;20035;-77
2022/07/19 11:31:17;;;;;;;9.80;3.00;;;;;;;31.10;33.23;99375.84;4387115;32;20450;-72
2022/07/19 11:33:47;;;;;;;4.43;3.28;;;;;;;30.98;33.73;99370.53;4372247;32;20051;-73
2022/07/19 11:38:52;;;;;;;5.65;3.45;;;;;;;31.42;33.35;99357.91;4385435;32;20061;-73